Richmond South's Hourly Summary for Friday, May 11, 2018
Hour Temp
(f)
RH
(%)
Solar Rad.
(MJ/m2)
Rainfall
(in)
Wind
(mph)
5/11/2018 12:00 AM 72 82 0 0 5.99
5/11/2018 1:00 AM 71 87 0 0 5.38
5/11/2018 2:00 AM 70 89 0 0 4.92
5/11/2018 3:00 AM 70 90 0 0 5.27
5/11/2018 4:00 AM 70 91 0 0 4.53
5/11/2018 5:00 AM 69 93 0 0 4.6
5/11/2018 6:00 AM 69 92 0 0 4.85
5/11/2018 7:00 AM 69 92 0.02 0 4.19
5/11/2018 8:00 AM 72 86 0.21 0 6.13
5/11/2018 9:00 AM 76 77 0.75 0 8.15
5/11/2018 10:00 AM 80 56 1.68 0 13.13
5/11/2018 11:00 AM 83 51 2.21 0 12.95
5/11/2018 12:00 PM 86 40 3.34 0 13.79
5/11/2018 1:00 PM 87 41 2.67 0 13.39
5/11/2018 2:00 PM 88 39 2.89 0 13.79
5/11/2018 3:00 PM 88 39 2.55 0 13.67
5/11/2018 4:00 PM 88 41 2.37 0 14.11
5/11/2018 5:00 PM 88 40 2.31 0 13.72
5/11/2018 6:00 PM 86 43 1.47 0 13.6
5/11/2018 7:00 PM 85 47 1 0 13.57
5/11/2018 8:00 PM 82 53 0.32 0 11.28
5/11/2018 9:00 PM 78 67 0.01 0 9.1
5/11/2018 10:00 PM 76 76 0 0 8.27
5/11/2018 11:00 PM 75 81 0 0 8.32
Data Summary 78 66 23.80 0.00 9.45